Time;durP1;ratioP1;P1;durP2;ratioP2;P2;SDS_P1;SDS_P2;PMS_P1;PMS_P2;Temp;Humidity;BMP_temperature;BMP_pressure;BME280_temperature;BME280_humidity;BME280_pressure;Samples;Min_cycle;Max_cycle;Signal;HPM_P1;HPM_P2
2023/11/13 00:00:30;;;;;;;34.70;30.17;;;;;;;;;;4929478;28;20247;-85
2023/11/13 00:02:58;;;;;;;33.97;30.23;;;;;;;;;;4947638;28;20249;-84
2023/11/13 00:05:26;;;;;;;32.23;28.63;;;;;;;;;;4933790;28;20222;-85
2023/11/13 00:07:57;;;;;;;33.50;28.97;;;;;;;;;;4930524;28;20249;-85
2023/11/13 00:10:25;;;;;;;36.50;32.63;;;;;;;;;;4934981;28;20238;-85
2023/11/13 00:12:51;;;;;;;40.87;36.33;;;;;;;;;;4954451;28;20217;-84
2023/11/13 00:15:17;;;;;;;42.13;37.67;;;;;;;;;;4937803;28;20906;-85
2023/11/13 00:17:48;;;;;;;40.33;36.10;;;;;;;;;;4939418;28;20692;-84
2023/11/13 00:20:16;;;;;;;39.70;35.53;;;;;;;;;;4920063;28;20234;-86
2023/11/13 00:22:41;;;;;;;39.07;35.03;;;;;;;;;;4932944;28;20195;-84
2023/11/13 00:25:07;;;;;;;37.33;33.43;;;;;;;;;;4913457;28;20237;-84
2023/11/13 00:27:35;;;;;;;37.23;33.30;;;;;;;;;;4914374;29;20216;-84
2023/11/13 00:30:06;;;;;;;37.27;33.23;;;;;;;;;;4919951;28;20227;-84
2023/11/13 00:32:37;;;;;;;37.93;31.23;;;;;;;;;;4955901;28;20791;-84
2023/11/13 00:35:05;;;;;;;33.03;29.50;;;;;;;;;;4942087;28;20254;-84
2023/11/13 00:37:33;;;;;;;35.70;30.87;;;;;;;;;;4943011;29;20226;-84
2023/11/13 00:39:59;;;;;;;34.27;30.07;;;;;;;;;;4937084;28;20230;-85
2023/11/13 00:42:25;;;;;;;33.13;27.67;;;;;;;;;;4920419;28;20849;-85
2023/11/13 00:44:51;;;;;;;33.17;29.70;;;;;;;;;;4951284;28;20226;-85
2023/11/13 00:47:19;;;;;;;33.97;30.37;;;;;;;;;;4946595;28;20225;-85
2023/11/13 00:49:44;;;;;;;33.20;29.50;;;;;;;;;;4973921;28;20218;-87
2023/11/13 00:52:13;;;;;;;32.60;28.63;;;;;;;;;;4962801;28;20226;-85
2023/11/13 00:54:41;;;;;;;32.10;28.77;;;;;;;;;;4920885;29;20364;-86
2023/11/13 00:57:07;;;;;;;30.40;27.23;;;;;;;;;;4957288;28;20757;-85
2023/11/13 00:59:37;;;;;;;30.03;26.83;;;;;;;;;;4939626;28;20226;-85
2023/11/13 01:02:03;;;;;;;28.50;25.57;;;;;;;;;;4953917;28;20233;-85
2023/11/13 01:04:29;;;;;;;28.47;25.67;;;;;;;;;;4930542;28;20684;-84
2023/11/13 01:06:57;;;;;;;29.47;26.33;;;;;;;;;;4954852;28;20221;-85
2023/11/13 01:09:23;;;;;;;30.23;25.80;;;;;;;;;;4923825;28;20222;-84
2023/11/13 01:11:50;;;;;;;28.63;25.80;;;;;;;;;;4944177;28;20234;-86
2023/11/13 01:14:18;;;;;;;30.90;27.00;;;;;;;;;;4955128;28;20226;-86
2023/11/13 01:16:44;;;;;;;30.90;27.60;;;;;;;;;;4942943;28;20636;-85
2023/11/13 01:19:12;;;;;;;34.50;26.03;;;;;;;;;;4952757;28;20230;-86
2023/11/13 01:21:40;;;;;;;27.47;24.57;;;;;;;;;;4945968;28;20236;-86
2023/11/13 01:24:10;;;;;;;28.30;25.33;;;;;;;;;;4921254;28;20221;-86
2023/11/13 01:26:38;;;;;;;27.73;24.73;;;;;;;;;;4940429;29;20222;-86
2023/11/13 01:29:08;;;;;;;33.27;26.00;;;;;;;;;;4913621;28;20230;-85
2023/11/13 01:31:34;;;;;;;31.30;25.50;;;;;;;;;;4952058;28;20232;-86
2023/11/13 01:34:03;;;;;;;30.83;27.37;;;;;;;;;;4917212;28;20215;-84
2023/11/13 01:36:30;;;;;;;27.43;24.60;;;;;;;;;;4949738;28;20235;-85
2023/11/13 01:38:56;;;;;;;29.37;25.87;;;;;;;;;;4919860;29;20230;-86
2023/11/13 01:41:21;;;;;;;30.37;25.50;;;;;;;;;;4922899;28;20758;-84
2023/11/13 01:43:47;;;;;;;26.83;24.23;;;;;;;;;;4955185;28;21309;-85
2023/11/13 01:46:19;;;;;;;27.67;24.90;;;;;;;;;;4931405;28;20219;-86
2023/11/13 01:48:47;;;;;;;28.87;25.87;;;;;;;;;;4955820;28;20257;-84
2023/11/13 01:51:15;;;;;;;26.30;23.53;;;;;;;;;;4953797;28;20221;-85
2023/11/13 01:53:42;;;;;;;28.70;25.80;;;;;;;;;;4955048;28;20313;-85
2023/11/13 01:56:08;;;;;;;29.27;25.87;;;;;;;;;;4944769;28;20226;-84
2023/11/13 01:58:34;;;;;;;30.17;26.87;;;;;;;;;;4935264;28;20229;-86
2023/11/13 02:01:00;;;;;;;29.17;25.40;;;;;;;;;;4941736;28;20570;-86
2023/11/13 02:03:25;;;;;;;29.30;26.27;;;;;;;;;;4920654;28;20226;-85
2023/11/13 02:05:51;;;;;;;49.03;28.40;;;;;;;;;;4936629;29;20214;-86
2023/11/13 02:08:20;;;;;;;31.67;26.27;;;;;;;;;;4939338;28;20253;-86
2023/11/13 02:10:46;;;;;;;27.77;24.83;;;;;;;;;;4918210;29;20229;-87
2023/11/13 02:13:14;;;;;;;24.83;22.23;;;;;;;;;;4920357;28;20234;-87
2023/11/13 02:15:43;;;;;;;25.07;22.47;;;;;;;;;;4936149;29;20321;-86
2023/11/13 02:18:13;;;;;;;25.33;22.77;;;;;;;;;;4916496;28;20242;-85
2023/11/13 02:20:41;;;;;;;25.67;23.00;;;;;;;;;;4922793;29;20241;-85
2023/11/13 02:23:09;;;;;;;26.13;23.67;;;;;;;;;;4919052;28;20696;-85
2023/11/13 02:25:39;;;;;;;24.10;21.77;;;;;;;;;;4920878;29;20297;-85
2023/11/13 02:28:06;;;;;;;22.97;20.77;;;;;;;;;;4919700;28;20739;-85
2023/11/13 02:30:36;;;;;;;24.07;21.53;;;;;;;;;;4932251;29;20222;-85
2023/11/13 02:33:05;;;;;;;24.07;21.67;;;;;;;;;;4918513;29;20227;-85
2023/11/13 02:35:33;;;;;;;24.00;21.07;;;;;;;;;;4937625;29;20219;-86
2023/11/13 02:38:01;;;;;;;21.63;19.63;;;;;;;;;;4920203;29;20788;-86
2023/11/13 02:40:29;;;;;;;22.87;20.57;;;;;;;;;;4935849;28;20329;-85
2023/11/13 02:42:55;;;;;;;21.60;19.47;;;;;;;;;;4936121;28;20218;-86
2023/11/13 02:45:23;;;;;;;20.17;18.27;;;;;;;;;;4941448;28;20210;-86
2023/11/13 02:47:51;;;;;;;19.13;17.30;;;;;;;;;;4966681;28;20551;-87
2023/11/13 02:50:16;;;;;;;19.37;17.53;;;;;;;;;;4955123;28;20231;-86
2023/11/13 02:52:44;;;;;;;20.80;18.83;;;;;;;;;;4958594;28;20253;-86
2023/11/13 02:55:12;;;;;;;20.47;18.47;;;;;;;;;;4932614;28;20226;-86
2023/11/13 02:57:42;;;;;;;20.67;18.67;;;;;;;;;;4936696;28;20811;-87
2023/11/13 03:00:11;;;;;;;20.50;18.50;;;;;;;;;;4943213;28;20229;-87
2023/11/13 03:02:39;;;;;;;20.97;18.77;;;;;;;;;;4936681;28;20274;-87
2023/11/13 03:05:05;;;;;;;19.17;17.47;;;;;;;;;;4942240;28;20622;-88
2023/11/13 03:07:33;;;;;;;16.40;14.80;;;;;;;;;;4937745;28;20226;-87
2023/11/13 03:09:59;;;;;;;17.90;16.27;;;;;;;;;;4943715;28;20227;-86
2023/11/13 03:12:28;;;;;;;17.70;15.90;;;;;;;;;;4949069;28;20306;-85
2023/11/13 03:14:54;;;;;;;16.70;15.20;;;;;;;;;;4964111;28;20217;-86
2023/11/13 03:17:22;;;;;;;17.77;16.17;;;;;;;;;;4942733;28;20226;-86
2023/11/13 03:19:49;;;;;;;17.17;15.53;;;;;;;;;;4922351;28;20314;-85
2023/11/13 03:22:14;;;;;;;17.50;16.00;;;;;;;;;;4945797;28;20619;-86
2023/11/13 03:24:44;;;;;;;17.60;16.00;;;;;;;;;;4922907;28;20226;-86
2023/11/13 03:27:10;;;;;;;17.13;15.43;;;;;;;;;;4934032;28;20222;-83
2023/11/13 03:29:35;;;;;;;17.70;16.00;;;;;;;;;;4916092;28;20229;-84
2023/11/13 03:32:03;;;;;;;19.13;17.10;;;;;;;;;;4927965;28;20240;-84
2023/11/13 03:34:32;;;;;;;18.20;16.50;;;;;;;;;;4949333;28;20229;-84
2023/11/13 03:37:00;;;;;;;17.77;16.13;;;;;;;;;;4950630;28;20704;-83
2023/11/13 03:39:26;;;;;;;18.00;16.17;;;;;;;;;;4937818;28;20218;-82
2023/11/13 03:41:51;;;;;;;18.20;16.40;;;;;;;;;;4967867;28;20241;-83
2023/11/13 03:44:17;;;;;;;17.73;15.93;;;;;;;;;;4971071;28;20280;-82
2023/11/13 03:46:45;;;;;;;18.37;16.63;;;;;;;;;;4973022;28;20242;-84
2023/11/13 03:49:17;;;;;;;18.60;16.70;;;;;;;;;;4966471;28;20237;-84
2023/11/13 03:51:43;;;;;;;18.13;16.30;;;;;;;;;;4956155;28;20225;-83
2023/11/13 03:54:17;;;;;;;17.93;16.23;;;;;;;;;;4961067;28;20219;-84
2023/11/13 03:56:45;;;;;;;17.70;15.97;;;;;;;;;;4934954;28;20214;-85
2023/11/13 04:03:03;;;;;;;16.20;14.60;;;;;;;;;;4994470;28;20295;-82
2023/11/13 04:05:31;;;;;;;18.83;16.97;;;;;;;;;;4979911;28;20265;-82
2023/11/13 04:07:57;;;;;;;17.40;15.80;;;;;;;;;;4964702;28;20210;-82
2023/11/13 04:10:23;;;;;;;16.53;15.13;;;;;;;;;;4963251;28;20234;-83
2023/11/13 04:12:50;;;;;;;17.43;15.73;;;;;;;;;;4975061;28;20242;-83
2023/11/13 04:15:21;;;;;;;16.60;14.97;;;;;;;;;;4959384;28;20273;-86
2023/11/13 04:17:49;;;;;;;17.20;15.50;;;;;;;;;;4939859;28;20714;-86
2023/11/13 04:20:18;;;;;;;18.63;16.83;;;;;;;;;;4958321;28;20223;-85
2023/11/13 04:22:46;;;;;;;18.80;16.87;;;;;;;;;;4961738;28;20210;-86
2023/11/13 04:25:12;;;;;;;19.37;17.50;;;;;;;;;;4925844;28;20893;-86
2023/11/13 04:27:37;;;;;;;19.57;17.77;;;;;;;;;;4942256;28;20216;-85
2023/11/13 04:30:04;;;;;;;19.03;17.13;;;;;;;;;;4944897;28;20214;-84
2023/11/13 04:32:30;;;;;;;17.40;15.73;;;;;;;;;;4955008;28;20979;-85
2023/11/13 04:34:56;;;;;;;17.80;16.10;;;;;;;;;;4937161;28;20219;-82
2023/11/13 04:37:24;;;;;;;17.93;16.13;;;;;;;;;;4940820;28;20719;-85
2023/11/13 04:39:54;;;;;;;19.20;17.30;;;;;;;;;;4958250;28;20305;-84
2023/11/13 04:42:26;;;;;;;28.23;25.33;;;;;;;;;;4941018;28;20214;-84
2023/11/13 04:44:54;;;;;;;22.00;19.90;;;;;;;;;;4941826;28;20218;-83
2023/11/13 04:47:22;;;;;;;21.30;19.23;;;;;;;;;;4941312;28;20229;-84
2023/11/13 04:49:50;;;;;;;19.70;17.90;;;;;;;;;;4941345;28;20221;-84
2023/11/13 04:52:16;;;;;;;19.40;17.40;;;;;;;;;;4917059;28;20214;-84
2023/11/13 04:54:44;;;;;;;17.90;16.30;;;;;;;;;;4941717;28;20306;-84
2023/11/13 04:57:09;;;;;;;17.83;16.23;;;;;;;;;;4941290;28;20223;-85
2023/11/13 04:59:35;;;;;;;18.83;16.77;;;;;;;;;;4927767;28;20273;-83
2023/11/13 05:02:01;;;;;;;18.37;16.13;;;;;;;;;;4920066;29;20280;-85
2023/11/13 05:04:29;;;;;;;18.37;16.57;;;;;;;;;;4915024;28;21725;-85
2023/11/13 05:06:55;;;;;;;17.73;16.13;;;;;;;;;;4955702;28;20592;-83
2023/11/13 05:09:20;;;;;;;17.37;15.67;;;;;;;;;;4932555;28;20219;-86
2023/11/13 05:11:48;;;;;;;18.67;16.90;;;;;;;;;;4918239;29;20945;-85
2023/11/13 05:14:16;;;;;;;18.20;16.53;;;;;;;;;;4923330;28;20229;-84
2023/11/13 05:16:42;;;;;;;17.17;15.57;;;;;;;;;;4921377;29;20636;-85
2023/11/13 05:19:07;;;;;;;16.50;14.80;;;;;;;;;;4919537;28;20215;-83
2023/11/13 05:21:35;;;;;;;17.00;15.37;;;;;;;;;;4933748;28;20768;-85
2023/11/13 05:24:06;;;;;;;16.57;15.07;;;;;;;;;;4918425;29;20633;-86
2023/11/13 05:26:34;;;;;;;17.73;16.13;;;;;;;;;;4921629;28;20265;-86
2023/11/13 05:29:02;;;;;;;16.87;15.27;;;;;;;;;;4952112;29;20211;-84
2023/11/13 05:31:27;;;;;;;16.43;14.83;;;;;;;;;;4939553;28;21099;-84
2023/11/13 05:33:55;;;;;;;17.40;15.73;;;;;;;;;;4957245;28;20309;-85
2023/11/13 05:36:21;;;;;;;15.63;14.23;;;;;;;;;;4957620;28;20246;-86
2023/11/13 05:38:49;;;;;;;18.57;14.90;;;;;;;;;;4920314;28;20225;-86
2023/11/13 05:41:14;;;;;;;15.33;13.90;;;;;;;;;;4955997;28;20582;-86
2023/11/13 05:43:40;;;;;;;15.57;14.17;;;;;;;;;;4952644;28;20240;-85
2023/11/13 05:46:08;;;;;;;14.63;13.23;;;;;;;;;;4941265;28;20224;-85
2023/11/13 05:48:36;;;;;;;16.00;14.40;;;;;;;;;;4942229;28;20218;-86
2023/11/13 05:51:06;;;;;;;15.40;13.70;;;;;;;;;;4945531;28;20617;-84
2023/11/13 05:53:32;;;;;;;15.50;14.00;;;;;;;;;;4924109;28;20310;-85
2023/11/13 05:56:00;;;;;;;15.20;13.70;;;;;;;;;;4944500;28;20610;-85
2023/11/13 05:58:25;;;;;;;15.17;13.80;;;;;;;;;;4938360;28;20214;-85
2023/11/13 06:00:56;;;;;;;16.13;14.67;;;;;;;;;;4940544;28;20225;-83
2023/11/13 06:03:22;;;;;;;15.87;14.57;;;;;;;;;;4955803;28;20703;-85
2023/11/13 06:05:53;;;;;;;14.07;12.80;;;;;;;;;;4954040;28;20214;-85
2023/11/13 06:08:21;;;;;;;13.80;12.50;;;;;;;;;;4961851;28;20223;-85
2023/11/13 06:10:52;;;;;;;14.53;13.27;;;;;;;;;;4937865;28;20304;-85
2023/11/13 06:13:19;;;;;;;15.07;13.47;;;;;;;;;;4938136;28;20219;-84
2023/11/13 06:15:47;;;;;;;15.33;13.83;;;;;;;;;;4955595;28;20237;-85
2023/11/13 06:18:16;;;;;;;15.30;13.80;;;;;;;;;;4939612;28;20229;-83
2023/11/13 06:20:43;;;;;;;14.67;13.33;;;;;;;;;;4941670;28;20309;-87
2023/11/13 06:23:10;;;;;;;14.20;12.90;;;;;;;;;;4952317;28;20218;-85
2023/11/13 06:25:38;;;;;;;14.70;13.33;;;;;;;;;;4968412;28;20272;-86
2023/11/13 06:28:06;;;;;;;14.60;13.27;;;;;;;;;;4938850;28;20226;-84
2023/11/13 06:30:32;;;;;;;15.57;14.07;;;;;;;;;;4953249;28;20230;-86
2023/11/13 06:32:58;;;;;;;14.17;12.87;;;;;;;;;;4943210;28;20842;-87
2023/11/13 06:35:23;;;;;;;15.87;14.27;;;;;;;;;;4955723;28;20303;-85
2023/11/13 06:37:51;;;;;;;14.60;13.13;;;;;;;;;;4958078;28;20632;-85
2023/11/13 06:40:17;;;;;;;15.63;14.17;;;;;;;;;;4969141;28;20241;-84
2023/11/13 06:42:45;;;;;;;14.97;13.67;;;;;;;;;;4940748;28;20224;-84
2023/11/13 06:45:14;;;;;;;14.07;12.87;;;;;;;;;;4966080;28;20337;-85
2023/11/13 06:47:43;;;;;;;14.57;12.90;;;;;;;;;;4952674;28;20223;-85
2023/11/13 06:50:08;;;;;;;14.37;12.97;;;;;;;;;;4934187;28;20696;-84
2023/11/13 06:52:34;;;;;;;14.43;13.00;;;;;;;;;;4940902;28;20218;-83
2023/11/13 06:55:04;;;;;;;13.83;12.20;;;;;;;;;;4921594;28;21004;-84
2023/11/13 06:57:34;;;;;;;15.20;13.87;;;;;;;;;;4966117;28;20225;-86
2023/11/13 07:00:02;;;;;;;14.17;12.87;;;;;;;;;;4951948;28;20215;-79
2023/11/13 07:02:29;;;;;;;15.20;13.60;;;;;;;;;;4953998;28;20221;-79
2023/11/13 07:04:57;;;;;;;15.97;13.90;;;;;;;;;;4949946;28;20215;-78
2023/11/13 07:07:22;;;;;;;15.13;13.80;;;;;;;;;;4964964;28;20271;-78
2023/11/13 07:09:48;;;;;;;15.30;13.90;;;;;;;;;;4954472;28;20222;-79
2023/11/13 07:12:14;;;;;;;14.37;13.17;;;;;;;;;;4954309;28;20642;-79
2023/11/13 07:14:41;;;;;;;14.77;13.37;;;;;;;;;;4940033;28;20306;-79
2023/11/13 07:17:10;;;;;;;18.20;14.07;;;;;;;;;;4976990;28;20225;-79
2023/11/13 07:19:38;;;;;;;15.53;13.00;;;;;;;;;;4960397;28;20217;-78
2023/11/13 07:22:06;;;;;;;14.17;12.70;;;;;;;;;;4969416;28;20226;-78
2023/11/13 07:24:36;;;;;;;14.50;13.00;;;;;;;;;;4960910;28;20229;-77
2023/11/13 07:27:05;;;;;;;14.27;12.87;;;;;;;;;;4961741;28;20668;-77
2023/11/13 07:29:34;;;;;;;15.13;13.53;;;;;;;;;;4943735;28;20736;-78
2023/11/13 07:32:01;;;;;;;14.20;12.70;;;;;;;;;;4951792;28;20292;-77
2023/11/13 07:34:27;;;;;;;15.47;13.80;;;;;;;;;;4956706;28;20252;-77
2023/11/13 07:36:55;;;;;;;14.43;13.03;;;;;;;;;;4966664;28;20232;-77
2023/11/13 07:39:27;;;;;;;16.40;13.40;;;;;;;;;;4949176;28;20242;-77
2023/11/13 07:41:55;;;;;;;14.07;12.70;;;;;;;;;;4957295;28;20801;-77
2023/11/13 07:44:21;;;;;;;14.23;12.83;;;;;;;;;;4953676;28;20722;-77
2023/11/13 07:46:51;;;;;;;14.23;12.83;;;;;;;;;;4950581;28;20215;-77
2023/11/13 07:49:17;;;;;;;15.73;13.00;;;;;;;;;;4964066;28;20218;-77
2023/11/13 07:51:43;;;;;;;15.57;12.90;;;;;;;;;;4960155;28;20272;-77
2023/11/13 07:54:09;;;;;;;15.70;12.93;;;;;;;;;;4947808;28;20221;-78
2023/11/13 07:56:35;;;;;;;15.10;13.40;;;;;;;;;;4945969;28;20618;-78
2023/11/13 07:59:08;;;;;;;17.57;14.57;;;;;;;;;;4976271;28;20863;-78
2023/11/13 08:01:37;;;;;;;14.80;13.30;;;;;;;;;;4934522;28;20228;-78
2023/11/13 08:04:10;;;;;;;14.30;12.80;;;;;;;;;;4975427;28;20746;-77
2023/11/13 08:06:35;;;;;;;13.30;11.90;;;;;;;;;;4930728;28;20259;-78
2023/11/13 08:09:07;;;;;;;14.23;12.17;;;;;;;;;;4932946;28;20223;-79
2023/11/13 08:11:34;;;;;;;13.70;12.47;;;;;;;;;;4964208;28;20237;-77
2023/11/13 08:14:00;;;;;;;14.40;12.90;;;;;;;;;;4950215;28;20217;-77
2023/11/13 08:16:27;;;;;;;13.93;12.57;;;;;;;;;;4950154;28;20691;-77
2023/11/13 08:18:52;;;;;;;14.83;12.10;;;;;;;;;;4965990;28;20214;-77
2023/11/13 08:21:21;;;;;;;15.47;12.80;;;;;;;;;;4965728;28;20953;-78
2023/11/13 08:23:48;;;;;;;16.40;12.40;;;;;;;;;;4970160;28;20218;-78
2023/11/13 08:26:14;;;;;;;14.60;11.97;;;;;;;;;;4951725;28;20222;-78
2023/11/13 08:28:40;;;;;;;16.57;13.10;;;;;;;;;;4935625;28;20229;-78
2023/11/13 08:31:07;;;;;;;20.80;18.70;;;;;;;;;;4955816;28;20965;-78
2023/11/13 08:33:33;;;;;;;16.97;13.27;;;;;;;;;;4960033;28;20317;-78
2023/11/13 08:36:00;;;;;;;16.37;13.43;;;;;;;;;;4948436;28;20305;-77
2023/11/13 08:38:26;;;;;;;14.83;12.27;;;;;;;;;;4960034;28;20222;-77
2023/11/13 08:40:55;;;;;;;14.07;12.17;;;;;;;;;;4957650;28;20243;-76
2023/11/13 08:43:21;;;;;;;14.27;12.77;;;;;;;;;;4933212;28;20220;-77
2023/11/13 08:45:49;;;;;;;14.07;12.60;;;;;;;;;;4964871;28;20222;-76
2023/11/13 08:48:14;;;;;;;14.20;12.53;;;;;;;;;;4964542;28;20734;-77
2023/11/13 08:50:43;;;;;;;15.27;12.67;;;;;;;;;;4947437;28;20226;-77
2023/11/13 08:53:09;;;;;;;12.80;11.60;;;;;;;;;;4958770;28;20231;-77
2023/11/13 08:55:35;;;;;;;13.87;12.40;;;;;;;;;;4948649;28;20234;-77
2023/11/13 08:58:04;;;;;;;13.43;11.83;;;;;;;;;;4968993;28;20218;-77
2023/11/13 09:00:40;;;;;;;15.00;12.73;;;;;;;;;;4967091;28;20349;-77
2023/11/13 09:03:08;;;;;;;13.43;11.73;;;;;;;;;;4947300;28;20248;-76
2023/11/13 09:05:34;;;;;;;14.10;12.17;;;;;;;;;;4942207;28;20222;-77
2023/11/13 09:08:02;;;;;;;13.20;11.87;;;;;;;;;;4948980;28;20729;-77
2023/11/13 09:10:28;;;;;;;13.43;11.70;;;;;;;;;;4947862;28;20289;-77
2023/11/13 09:13:00;;;;;;;13.83;12.40;;;;;;;;;;4932679;28;20228;-77
2023/11/13 09:15:27;;;;;;;13.53;12.00;;;;;;;;;;4947170;28;20230;-76
2023/11/13 09:17:54;;;;;;;13.73;12.20;;;;;;;;;;4941860;28;20964;-76
2023/11/13 09:20:20;;;;;;;17.17;12.40;;;;;;;;;;4955708;28;20232;-76
2023/11/13 09:22:48;;;;;;;13.93;12.17;;;;;;;;;;4960076;28;21041;-77
2023/11/13 09:25:14;;;;;;;14.37;12.13;;;;;;;;;;4955331;28;20245;-77
2023/11/13 09:27:48;;;;;;;15.03;11.17;;;;;;;;;;4957137;28;20690;-77
2023/11/13 09:30:18;;;;;;;13.07;11.00;;;;;;;;;;4945122;28;20253;-77
2023/11/13 09:32:51;;;;;;;14.17;11.87;;;;;;;;;;4928558;28;20261;-77
2023/11/13 09:35:23;;;;;;;15.23;12.03;;;;;;;;;;4956255;28;20233;-77
2023/11/13 09:37:52;;;;;;;14.47;11.93;;;;;;;;;;4947765;28;20250;-77
2023/11/13 09:40:19;;;;;;;12.73;11.50;;;;;;;;;;4947215;28;20249;-76
2023/11/13 09:42:51;;;;;;;12.83;11.53;;;;;;;;;;4956923;28;20692;-77
2023/11/13 09:45:18;;;;;;;12.87;11.57;;;;;;;;;;4948395;28;20226;-77
2023/11/13 09:47:46;;;;;;;15.17;11.90;;;;;;;;;;4944753;28;20297;-77
2023/11/13 09:50:15;;;;;;;14.07;11.80;;;;;;;;;;4948095;28;20695;-77
2023/11/13 09:52:50;;;;;;;12.63;10.40;;;;;;;;;;4948182;28;20230;-77
2023/11/13 09:55:23;;;;;;;11.67;10.47;;;;;;;;;;4948675;28;20229;-77
2023/11/13 09:57:52;;;;;;;10.93;9.70;;;;;;;;;;4941565;28;20226;-77
2023/11/13 10:00:20;;;;;;;11.83;10.47;;;;;;;;;;4932296;28;20226;-76
2023/11/13 10:02:46;;;;;;;10.50;9.40;;;;;;;;;;4949476;28;20767;-77
2023/11/13 10:05:15;;;;;;;10.60;9.27;;;;;;;;;;4965029;28;20219;-77
2023/11/13 10:07:44;;;;;;;10.03;9.07;;;;;;;;;;4949587;28;20222;-78
2023/11/13 10:10:17;;;;;;;12.17;9.20;;;;;;;;;;4970807;28;20727;-77
2023/11/13 10:12:45;;;;;;;9.77;8.77;;;;;;;;;;4946564;28;20214;-77
2023/11/13 10:15:14;;;;;;;9.60;8.23;;;;;;;;;;4960365;28;20229;-76
2023/11/13 10:17:44;;;;;;;9.73;8.67;;;;;;;;;;4960659;28;20231;-80
2023/11/13 10:20:11;;;;;;;12.93;8.10;;;;;;;;;;4960157;28;20265;-78
2023/11/13 10:22:40;;;;;;;10.67;8.27;;;;;;;;;;4961090;28;20229;-78
2023/11/13 10:25:11;;;;;;;12.47;7.80;;;;;;;;;;4960297;28;20207;-76
2023/11/13 10:27:40;;;;;;;8.40;7.53;;;;;;;;;;4976216;28;20234;-75
2023/11/13 10:30:06;;;;;;;10.90;7.50;;;;;;;;;;4958996;28;20336;-77
2023/11/13 10:32:32;;;;;;;8.23;7.50;;;;;;;;;;4964175;28;20233;-78
2023/11/13 10:35:00;;;;;;;7.13;6.37;;;;;;;;;;4959419;28;20226;-78
2023/11/13 10:37:25;;;;;;;10.63;7.73;;;;;;;;;;4976969;28;20227;-78
2023/11/13 10:39:53;;;;;;;8.17;7.37;;;;;;;;;;4961688;28;20226;-77
2023/11/13 10:42:25;;;;;;;14.53;7.60;;;;;;;;;;4945279;28;20226;-77
2023/11/13 10:44:58;;;;;;;7.67;6.97;;;;;;;;;;4934182;29;20242;-77
2023/11/13 10:47:30;;;;;;;7.20;6.50;;;;;;;;;;4938595;29;20227;-76
2023/11/13 10:49:57;;;;;;;9.57;7.03;;;;;;;;;;4949029;28;20223;-76
2023/11/13 10:52:27;;;;;;;9.70;6.93;;;;;;;;;;4942322;29;20223;-76
2023/11/13 10:54:56;;;;;;;6.77;5.93;;;;;;;;;;4942370;29;20291;-77
2023/11/13 10:57:25;;;;;;;7.00;6.33;;;;;;;;;;4914245;28;20230;-77
2023/11/13 10:59:55;;;;;;;6.90;6.20;;;;;;;;;;4919869;29;20306;-77
2023/11/13 11:02:21;;;;;;;7.03;6.33;;;;;;;;;;4938253;29;20238;-78
2023/11/13 11:04:49;;;;;;;5.93;5.23;;;;;;;;;;4931271;29;20218;-79
2023/11/13 11:07:15;;;;;;;6.17;5.57;;;;;;;;;;4914839;28;20231;-79
2023/11/13 11:09:41;;;;;;;6.30;5.70;;;;;;;;;;4940475;29;20227;-79
2023/11/13 11:12:07;;;;;;;7.77;5.10;;;;;;;;;;4935253;28;20667;-78
2023/11/13 11:14:53;;;;;;;6.17;5.60;;;;;;;;;;4929330;29;20231;-78
2023/11/13 11:17:25;;;;;;;5.60;5.10;;;;;;;;;;4932356;29;20233;-79
2023/11/13 11:19:52;;;;;;;5.03;4.60;;;;;;;;;;4943410;28;20233;-79
2023/11/13 11:22:38;;;;;;;6.50;5.07;;;;;;;;;;4933921;29;20613;-79
2023/11/13 11:25:13;;;;;;;4.83;4.43;;;;;;;;;;4917619;28;20225;-79
2023/11/13 11:27:43;;;;;;;7.87;5.20;;;;;;;;;;4942744;28;20361;-78
2023/11/13 11:30:22;;;;;;;8.93;4.30;;;;;;;;;;4956325;28;20230;-79
2023/11/13 11:33:04;;;;;;;9.57;5.20;;;;;;;;;;4940432;28;20273;-79
2023/11/13 11:35:30;;;;;;;7.47;4.80;;;;;;;;;;4974480;28;20231;-79
2023/11/13 11:38:27;;;;;;;5.53;4.80;;;;;;;;;;4947851;28;20242;-79
2023/11/13 11:40:58;;;;;;;7.43;5.17;;;;;;;;;;4968602;28;20229;-79
2023/11/13 11:43:33;;;;;;;5.40;4.90;;;;;;;;;;4954983;28;20226;-79
2023/11/13 11:46:03;;;;;;;6.63;5.07;;;;;;;;;;4975901;28;20238;-78
2023/11/13 11:48:31;;;;;;;5.67;5.10;;;;;;;;;;4968573;28;20708;-79
2023/11/13 11:51:12;;;;;;;5.10;4.60;;;;;;;;;;4947869;28;20811;-80
2023/11/13 11:53:40;;;;;;;5.10;4.47;;;;;;;;;;4963992;28;20226;-79
2023/11/13 11:56:07;;;;;;;6.17;4.70;;;;;;;;;;4950425;28;20230;-76
2023/11/13 11:58:35;;;;;;;6.17;4.67;;;;;;;;;;4968046;28;20261;-79
2023/11/13 12:01:01;;;;;;;5.43;4.93;;;;;;;;;;4952668;28;20233;-77
2023/11/13 12:03:28;;;;;;;7.13;5.40;;;;;;;;;;4937198;28;20233;-78
2023/11/13 12:05:54;;;;;;;5.10;4.70;;;;;;;;;;4950215;28;20435;-78
2023/11/13 12:08:20;;;;;;;5.97;5.37;;;;;;;;;;4930213;28;20691;-79
2023/11/13 12:10:48;;;;;;;6.23;4.70;;;;;;;;;;4960803;28;20233;-79
2023/11/13 12:13:14;;;;;;;6.47;5.60;;;;;;;;;;4964268;28;20225;-78
2023/11/13 12:15:39;;;;;;;5.33;4.83;;;;;;;;;;4952251;28;20265;-77
2023/11/13 12:18:05;;;;;;;5.83;5.33;;;;;;;;;;4960729;28;20218;-77
2023/11/13 12:20:31;;;;;;;6.13;5.23;;;;;;;;;;4975714;28;20234;-78
2023/11/13 12:22:56;;;;;;;5.67;5.17;;;;;;;;;;4934824;28;20711;-78
2023/11/13 12:25:26;;;;;;;5.47;5.07;;;;;;;;;;4942979;28;20229;-78
2023/11/13 12:27:54;;;;;;;6.07;5.03;;;;;;;;;;4944784;28;20222;-78
2023/11/13 12:30:20;;;;;;;6.63;4.63;;;;;;;;;;4978316;28;20667;-78
2023/11/13 12:32:52;;;;;;;4.83;4.47;;;;;;;;;;4965817;28;20226;-78
2023/11/13 12:35:20;;;;;;;6.00;5.40;;;;;;;;;;4978833;28;20231;-76
2023/11/13 12:37:48;;;;;;;5.60;5.10;;;;;;;;;;4961711;28;20226;-79
2023/11/13 12:40:16;;;;;;;5.60;5.10;;;;;;;;;;4966536;28;20231;-78
2023/11/13 12:42:43;;;;;;;8.20;5.27;;;;;;;;;;4932262;28;20235;-78
2023/11/13 12:45:12;;;;;;;6.00;5.33;;;;;;;;;;4931269;28;20216;-77
2023/11/13 12:47:44;;;;;;;6.37;5.03;;;;;;;;;;4931406;29;20219;-78
2023/11/13 12:50:12;;;;;;;6.30;5.50;;;;;;;;;;4932261;28;20608;-78
2023/11/13 12:52:38;;;;;;;7.07;5.57;;;;;;;;;;4935139;28;20226;-78
2023/11/13 12:55:10;;;;;;;6.43;5.83;;;;;;;;;;4928022;28;20227;-78
2023/11/13 12:57:42;;;;;;;5.83;4.97;;;;;;;;;;4918953;28;20223;-78
2023/11/13 13:00:15;;;;;;;5.67;5.17;;;;;;;;;;4938234;28;20223;-77
2023/11/13 13:02:49;;;;;;;6.10;5.20;;;;;;;;;;4931698;29;20549;-77
2023/11/13 13:05:18;;;;;;;6.80;6.20;;;;;;;;;;4943213;28;20228;-77
2023/11/13 13:07:44;;;;;;;6.27;5.70;;;;;;;;;;4949907;28;20312;-78
2023/11/13 13:10:13;;;;;;;6.73;6.00;;;;;;;;;;4970096;28;20574;-78
2023/11/13 13:12:39;;;;;;;6.70;5.97;;;;;;;;;;4956358;28;20250;-78
2023/11/13 13:15:16;;;;;;;6.57;5.97;;;;;;;;;;4955673;28;20291;-79
2023/11/13 13:17:44;;;;;;;6.80;6.10;;;;;;;;;;4949595;28;20305;-80
2023/11/13 13:20:18;;;;;;;6.43;5.93;;;;;;;;;;4954834;28;20226;-79
2023/11/13 13:22:46;;;;;;;6.73;6.13;;;;;;;;;;4966525;28;20321;-81
2023/11/13 13:25:14;;;;;;;6.53;5.97;;;;;;;;;;4967593;28;20222;-79
2023/11/13 13:27:40;;;;;;;6.67;6.00;;;;;;;;;;4959972;28;20225;-78
2023/11/13 13:30:09;;;;;;;6.67;6.07;;;;;;;;;;4962282;28;20635;-78
2023/11/13 13:32:34;;;;;;;7.13;5.30;;;;;;;;;;4956799;28;20234;-79
2023/11/13 13:35:03;;;;;;;6.33;5.83;;;;;;;;;;4936039;28;20240;-80
2023/11/13 13:37:34;;;;;;;6.17;5.63;;;;;;;;;;4964146;28;20241;-77
2023/11/13 13:39:59;;;;;;;7.00;6.40;;;;;;;;;;4960313;28;20718;-77
2023/11/13 13:42:25;;;;;;;6.10;5.60;;;;;;;;;;4967539;28;20246;-77
2023/11/13 13:44:51;;;;;;;6.83;6.33;;;;;;;;;;4965674;28;20715;-77
2023/11/13 13:47:17;;;;;;;7.53;6.83;;;;;;;;;;4966872;28;20222;-77
2023/11/13 13:49:45;;;;;;;6.37;5.77;;;;;;;;;;4977022;28;20227;-77
2023/11/13 13:52:16;;;;;;;7.70;6.97;;;;;;;;;;4959545;28;20229;-77
2023/11/13 13:54:44;;;;;;;7.40;6.70;;;;;;;;;;4952551;28;20238;-77
2023/11/13 13:57:09;;;;;;;6.90;6.30;;;;;;;;;;4954847;28;20297;-77
2023/11/13 13:59:36;;;;;;;8.53;6.67;;;;;;;;;;4953242;28;20640;-77
2023/11/13 14:02:03;;;;;;;8.27;7.47;;;;;;;;;;4964214;28;20222;-77
2023/11/13 14:04:31;;;;;;;6.90;6.30;;;;;;;;;;4973996;28;20273;-78
2023/11/13 14:06:57;;;;;;;6.80;6.20;;;;;;;;;;4945044;28;20198;-77
2023/11/13 14:09:24;;;;;;;8.83;6.13;;;;;;;;;;4935573;28;20234;-77
2023/11/13 14:11:49;;;;;;;7.00;6.40;;;;;;;;;;4947531;28;20307;-77
2023/11/13 14:14:15;;;;;;;6.77;6.17;;;;;;;;;;4936781;28;20229;-76
2023/11/13 14:16:45;;;;;;;6.87;6.27;;;;;;;;;;4939980;28;20246;-77
2023/11/13 14:19:11;;;;;;;7.47;6.70;;;;;;;;;;4925291;28;20241;-76
2023/11/13 14:21:38;;;;;;;7.30;6.63;;;;;;;;;;4946797;28;20234;-79
2023/11/13 14:24:08;;;;;;;6.67;6.07;;;;;;;;;;4941977;28;20251;-78
2023/11/13 14:26:34;;;;;;;7.37;6.73;;;;;;;;;;4945455;28;20347;-77
2023/11/13 14:29:04;;;;;;;9.03;6.77;;;;;;;;;;4940169;28;20230;-77
2023/11/13 14:31:32;;;;;;;6.87;6.37;;;;;;;;;;4937237;28;20237;-78